Grace, Mississippi
Current Conditions -  °F | °C
As of 8:53 AM on Friday 24 Oct 2014 (Local Time) from KGLH Reporting Station
Clear Clear  
Wind Chill: 55°   Ceiling: Unl
Heat Index: 55°   Visibility: 10mi
Dew Point: 50°   Wind: 5mph
Humidity: 83%   Direction: 350°N
Pressure: 30.17"   Gusts: NA
Location:  33°N, 90.96°W
Report Text: KGLH 241353Z AUTO 35004KT 10SM CLR 13/10 A3017 RMK AO2 SLP223 T01280100
Loading
Personal Weather Stations






























Interactive Weather Map
Tropical Storm Tracking
New forecast layout! Learn more

10-Day Weather Forecast

Advertisements
Track Severe Weather on mobile